Portada
METAR-TAF:

METAR-TAF

Aeroports :

Pskov, Rússia

latitud: 57-47-06N, longitud: 028-23-54E, altitud: 47 m

Observació

L'informe es va fer fa 46 minuts, a les 02:00 UTC
Vent 8 kt del Nord-Oest
Temperatura 13°C
Humitat 82%
Pressió 1016 hPa
Visibilitat 10 km o més
sense núvols per sota de 1500 mi sense presència de cumulonimbus.

METAR: ULOO 160200Z 32004MPS CAVOK 13/10 Q1016 R19/090060 NOSIG RMK QFE757

Hora: 05:46 (02:46 UTC)

Pronòstic

L'informe es va fer fa 51 minuts, a les 01:55 UTC
Pronòstic vàlid del 16 a les 03 UTC al 16 a les 12 UTC
Vent 6 kt del Oest/Nord-Oest
Visibilitat 10 km o més
Núvols disperses a una alçada de 2500 ft

TAF: ULOO 160155Z 1603/1612 30003MPS 9999 SCT025

Observacions i pronòstics meteorològics de més de 4000 aeroports (METAR i TAF).

Les estacions disponibles són els punts grocs i vermells al mapa.

Posi el ratolí al punt desitjat per veure el nom de l'estació.

Feu clic per veure les observacions i els pronòstics meteorològics.

Per canviar el mapa: feu clic els botons verds amb una creu de color negre per apropar; al botó verd amb un guió per allunyar la imatge; o en les fletxes verdes per a mapes adjacents.


METAR-TAF: